Time;durP1;ratioP1;P1;durP2;ratioP2;P2;SDS_P1;SDS_P2;PMS_P1;PMS_P2;Temp;Humidity;BMP_temperature;BMP_pressure;BME280_temperature;BME280_humidity;BME280_pressure;Samples;Min_cycle;Max_cycle;Signal;HPM_P1;HPM_P2
2021/10/10 00:02:14;;;;;;;26.87;18.17;;;;;;;;;;5158337;27;20442;-57
2021/10/10 00:04:41;;;;;;;19.00;11.83;;;;;;;;;;5158211;27;20471;-55
2021/10/10 00:07:08;;;;;;;19.93;13.30;;;;;;;;;;5157900;27;20547;-57
2021/10/10 00:09:35;;;;;;;20.53;13.87;;;;;;;;;;5157535;27;20481;-57
2021/10/10 00:12:03;;;;;;;20.73;14.97;;;;;;;;;;5156932;27;20490;-53
2021/10/10 00:14:45;;;;;;;17.50;12.87;;;;;;;;;;5157309;27;20434;-61
2021/10/10 00:17:13;;;;;;;17.40;11.37;;;;;;;;;;5157359;27;20689;-51
2021/10/10 00:19:40;;;;;;;16.60;13.27;;;;;;;;;;5157685;27;20468;-56
2021/10/10 00:22:07;;;;;;;19.17;14.60;;;;;;;;;;5155309;27;20494;-51
2021/10/10 00:24:34;;;;;;;17.93;11.83;;;;;;;;;;5157615;27;20454;-58
2021/10/10 00:27:01;;;;;;;14.90;9.60;;;;;;;;;;5157744;27;20454;-57
2021/10/10 00:29:40;;;;;;;19.93;14.90;;;;;;;;;;5158170;27;20930;-51
2021/10/10 00:32:09;;;;;;;12.83;9.07;;;;;;;;;;5157335;27;20449;-61
2021/10/10 00:34:36;;;;;;;13.70;9.80;;;;;;;;;;5158077;27;20452;-56
2021/10/10 00:40:01;;;;;;;13.27;9.40;;;;;;;;;;5091516;28;20477;-55
2021/10/10 00:42:28;;;;;;;13.63;9.07;;;;;;;;;;5093007;28;20453;-55
2021/10/10 00:45:01;;;;;;;14.07;10.10;;;;;;;;;;5093429;28;20493;-57
2021/10/10 00:47:29;;;;;;;14.97;9.20;;;;;;;;;;5143209;27;20465;-61
2021/10/10 00:49:57;;;;;;;12.77;8.60;;;;;;;;;;5198909;27;20491;-57
2021/10/10 00:52:37;;;;;;;18.60;12.77;;;;;;;;;;5198625;27;20539;-58
2021/10/10 00:55:05;;;;;;;13.93;9.60;;;;;;;;;;5194154;27;20439;-58
2021/10/10 00:57:33;;;;;;;17.40;10.57;;;;;;;;;;5092625;27;20473;-52
2021/10/10 01:03:07;;;;;;;21.17;12.30;;;;;;;;;;5092149;28;20434;-56
2021/10/10 01:05:34;;;;;;;15.10;10.73;;;;;;;;;;5093019;27;20452;-59
2021/10/10 01:08:02;;;;;;;14.33;9.23;;;;;;;;;;5092016;28;20551;-61
2021/10/10 01:10:29;;;;;;;18.23;10.23;;;;;;;;;;5102329;27;20475;-57
2021/10/10 01:12:59;;;;;;;16.30;9.70;;;;;;;;;;5092358;27;20452;-55
2021/10/10 01:15:26;;;;;;;23.27;13.07;;;;;;;;;;5092100;28;20441;-59
2021/10/10 01:17:57;;;;;;;16.47;11.43;;;;;;;;;;5092614;28;20452;-58
2021/10/10 01:20:27;;;;;;;15.10;10.27;;;;;;;;;;5091638;28;20508;-58
2021/10/10 01:22:59;;;;;;;13.03;9.47;;;;;;;;;;5091204;28;20455;-57
2021/10/10 01:25:36;;;;;;;12.93;9.40;;;;;;;;;;5099427;28;20447;-59
2021/10/10 01:28:04;;;;;;;13.30;9.37;;;;;;;;;;5102831;28;20458;-57
2021/10/10 01:30:31;;;;;;;15.70;10.20;;;;;;;;;;5098856;28;20483;-51
2021/10/10 01:33:08;;;;;;;16.50;10.93;;;;;;;;;;5091852;28;20473;-49
2021/10/10 01:35:35;;;;;;;14.65;10.07;;;;;;;;;;5092650;27;20524;-59
2021/10/10 01:38:05;;;;;;;17.13;11.65;;;;;;;;;;5092035;28;20574;-52
2021/10/10 01:40:37;;;;;;;14.10;8.83;;;;;;;;;;5092195;28;20194;-53
2021/10/10 01:43:05;;;;;;;18.30;10.97;;;;;;;;;;5092805;28;20475;-55
2021/10/10 01:45:32;;;;;;;15.00;9.97;;;;;;;;;;5091691;28;20526;-60
2021/10/10 01:48:06;;;;;;;16.93;9.70;;;;;;;;;;5092230;28;20444;-55
2021/10/10 01:50:34;;;;;;;15.13;10.25;;;;;;;;;;5158880;27;20598;-58
2021/10/10 01:53:01;;;;;;;13.88;10.45;;;;;;;;;;5177296;27;20191;-61
2021/10/10 01:55:43;;;;;;;17.48;9.38;;;;;;;;;;5177516;27;20203;-58
2021/10/10 01:58:10;;;;;;;16.00;9.50;;;;;;;;;;5093801;27;20289;-54
2021/10/10 02:00:38;;;;;;;15.13;11.18;;;;;;;;;;5052456;28;20203;-62
2021/10/10 02:03:05;;;;;;;11.75;8.25;;;;;;;;;;5051428;28;20207;-55
2021/10/10 02:05:32;;;;;;;15.13;9.70;;;;;;;;;;5052299;28;20192;-58
2021/10/10 02:08:01;;;;;;;15.20;10.05;;;;;;;;;;5052998;28;20450;-56
2021/10/10 02:10:28;;;;;;;14.05;10.25;;;;;;;;;;5052730;28;20230;-59
2021/10/10 02:12:57;;;;;;;15.93;11.48;;;;;;;;;;5052040;28;20219;-56
2021/10/10 02:15:25;;;;;;;17.52;10.93;;;;;;;;;;5052096;28;20208;-59
2021/10/10 02:17:53;;;;;;;12.90;8.32;;;;;;;;;;5052398;28;20208;-52
2021/10/10 02:20:20;;;;;;;14.90;10.47;;;;;;;;;;5052241;28;20192;-60
2021/10/10 02:22:53;;;;;;;12.45;8.57;;;;;;;;;;5052454;28;20473;-56
2021/10/10 02:25:21;;;;;;;13.33;9.43;;;;;;;;;;5052009;28;20226;-57
2021/10/10 02:27:48;;;;;;;13.40;8.98;;;;;;;;;;5051999;28;20464;-53
2021/10/10 02:30:17;;;;;;;17.80;8.90;;;;;;;;;;5051675;28;20266;-60
2021/10/10 02:32:44;;;;;;;14.05;9.95;;;;;;;;;;5052755;28;20192;-57
2021/10/10 02:35:27;;;;;;;10.60;8.38;;;;;;;;;;5052668;28;20236;-61
2021/10/10 02:37:54;;;;;;;16.40;9.77;;;;;;;;;;5055613;28;20229;-62
2021/10/10 02:40:22;;;;;;;14.40;9.35;;;;;;;;;;5055648;28;20211;-55
2021/10/10 02:42:50;;;;;;;14.75;9.25;;;;;;;;;;5062743;28;20179;-59
2021/10/10 02:45:18;;;;;;;16.77;9.65;;;;;;;;;;5075326;28;20207;-54
2021/10/10 02:47:47;;;;;;;16.70;10.40;;;;;;;;;;5070642;28;20204;-56
2021/10/10 02:50:14;;;;;;;18.35;10.07;;;;;;;;;;5055044;28;20232;-55
2021/10/10 02:52:42;;;;;;;13.60;9.33;;;;;;;;;;5054643;28;20525;-57
2021/10/10 02:55:10;;;;;;;16.42;9.93;;;;;;;;;;5038298;28;20475;-55
2021/10/10 02:57:38;;;;;;;14.27;9.70;;;;;;;;;;5051584;28;20227;-48
2021/10/10 03:00:06;;;;;;;12.90;9.10;;;;;;;;;;5046470;28;20192;-54
2021/10/10 03:02:38;;;;;;;12.80;8.90;;;;;;;;;;5034955;28;20181;-58
2021/10/10 03:05:05;;;;;;;14.07;9.70;;;;;;;;;;5037583;28;20207;-60
2021/10/10 03:07:33;;;;;;;14.23;9.48;;;;;;;;;;5047634;28;20241;-56
2021/10/10 03:10:01;;;;;;;13.73;8.75;;;;;;;;;;5045930;28;20220;-54
2021/10/10 03:12:28;;;;;;;17.23;9.57;;;;;;;;;;5035337;28;20624;-60
2021/10/10 03:14:56;;;;;;;12.80;8.25;;;;;;;;;;5035163;28;20212;-62
2021/10/10 03:17:26;;;;;;;15.95;8.50;;;;;;;;;;5055383;28;20254;-54
2021/10/10 03:19:55;;;;;;;13.15;9.25;;;;;;;;;;5054798;28;20220;-56
2021/10/10 03:22:23;;;;;;;18.50;9.88;;;;;;;;;;5050781;28;20233;-52
2021/10/10 03:24:57;;;;;;;13.70;9.60;;;;;;;;;;5052684;28;20362;-52
2021/10/10 03:27:26;;;;;;;23.05;10.60;;;;;;;;;;5054699;28;20202;-55
2021/10/10 03:29:54;;;;;;;11.50;9.60;;;;;;;;;;5055388;28;20253;-55
2021/10/10 03:32:38;;;;;;;11.05;7.85;;;;;;;;;;5054743;28;20255;-61
2021/10/10 03:35:08;;;;;;;14.10;10.20;;;;;;;;;;5054928;28;20196;-56
2021/10/10 03:37:35;;;;;;;13.85;9.10;;;;;;;;;;5054396;28;20252;-55
2021/10/10 03:40:05;;;;;;;14.50;8.85;;;;;;;;;;5054913;28;20204;-54
2021/10/10 03:42:32;;;;;;;12.98;9.23;;;;;;;;;;5054490;28;20188;-56
2021/10/10 03:44:59;;;;;;;13.48;9.00;;;;;;;;;;5053741;28;20222;-55
2021/10/10 03:47:37;;;;;;;11.20;8.52;;;;;;;;;;5054533;28;20180;-58
2021/10/10 03:50:04;;;;;;;14.05;8.20;;;;;;;;;;5055166;28;20203;-54
2021/10/10 03:52:33;;;;;;;15.15;10.38;;;;;;;;;;5055059;28;20203;-59
2021/10/10 03:55:22;;;;;;;12.63;9.02;;;;;;;;;;5054425;28;20199;-57
2021/10/10 03:57:50;;;;;;;13.60;8.55;;;;;;;;;;5053985;28;20291;-61
2021/10/10 04:00:17;;;;;;;13.75;9.20;;;;;;;;;;5054567;28;20218;-57
2021/10/10 04:02:55;;;;;;;13.27;9.02;;;;;;;;;;5054331;28;20208;-53
2021/10/10 04:05:26;;;;;;;14.80;10.20;;;;;;;;;;5054206;28;20218;-59
2021/10/10 04:07:54;;;;;;;17.13;9.65;;;;;;;;;;5054510;28;20195;-54
2021/10/10 04:10:38;;;;;;;14.15;9.02;;;;;;;;;;5054202;28;20211;-53
2021/10/10 04:13:06;;;;;;;12.52;8.73;;;;;;;;;;5054336;28;20208;-57
2021/10/10 04:15:35;;;;;;;12.18;9.93;;;;;;;;;;5054152;28;20188;-62
2021/10/10 04:18:11;;;;;;;19.23;11.55;;;;;;;;;;5054335;28;20223;-58
2021/10/10 04:20:39;;;;;;;13.18;8.93;;;;;;;;;;5052969;28;20228;-56
2021/10/10 04:23:09;;;;;;;17.30;9.90;;;;;;;;;;5050967;27;20231;-54
2021/10/10 04:25:37;;;;;;;18.80;10.25;;;;;;;;;;5050832;28;20183;-58
2021/10/10 04:28:05;;;;;;;14.90;9.93;;;;;;;;;;5053640;28;20235;-56
2021/10/10 04:30:32;;;;;;;15.27;9.82;;;;;;;;;;5130611;28;20216;-56
2021/10/10 04:33:08;;;;;;;12.88;9.93;;;;;;;;;;5137226;28;20222;-58
2021/10/10 04:35:36;;;;;;;14.15;9.80;;;;;;;;;;5137560;28;20250;-47
2021/10/10 04:38:03;;;;;;;13.27;9.15;;;;;;;;;;5137737;28;20214;-59
2021/10/10 04:40:32;;;;;;;15.20;8.65;;;;;;;;;;5137391;28;20184;-53
2021/10/10 04:42:59;;;;;;;14.60;9.63;;;;;;;;;;5091796;28;20230;-54
2021/10/10 04:45:26;;;;;;;14.90;9.82;;;;;;;;;;5036992;28;20190;-58
2021/10/10 04:47:56;;;;;;;11.85;10.10;;;;;;;;;;5042851;28;20196;-57
2021/10/10 04:50:23;;;;;;;15.90;9.68;;;;;;;;;;5060349;28;20633;-54
2021/10/10 04:52:52;;;;;;;12.32;8.65;;;;;;;;;;5054214;28;20233;-55
2021/10/10 04:55:19;;;;;;;20.77;10.15;;;;;;;;;;5053397;28;20229;-55
2021/10/10 04:57:48;;;;;;;12.45;9.73;;;;;;;;;;5052703;28;20231;-56
2021/10/10 05:00:25;;;;;;;13.98;10.13;;;;;;;;;;5052966;28;20206;-58
2021/10/10 05:02:54;;;;;;;15.82;9.70;;;;;;;;;;5038925;28;20199;-62
2021/10/10 05:05:21;;;;;;;18.65;9.98;;;;;;;;;;5053641;28;20256;-61
2021/10/10 05:08:00;;;;;;;12.32;8.70;;;;;;;;;;5057599;28;20214;-56
2021/10/10 05:10:27;;;;;;;12.55;8.77;;;;;;;;;;5053467;28;20243;-58
2021/10/10 05:12:56;;;;;;;12.48;9.35;;;;;;;;;;5052997;28;20207;-55
2021/10/10 05:15:23;;;;;;;19.00;11.30;;;;;;;;;;5052506;28;20214;-59
2021/10/10 05:17:50;;;;;;;16.95;10.38;;;;;;;;;;5053152;28;20205;-50
2021/10/10 05:20:19;;;;;;;16.77;10.75;;;;;;;;;;5053441;28;20248;-61
2021/10/10 05:22:46;;;;;;;17.70;12.63;;;;;;;;;;5052255;28;20203;-55
2021/10/10 05:25:13;;;;;;;17.48;10.82;;;;;;;;;;5043457;28;20204;-60
2021/10/10 05:30:45;;;;;;;16.90;9.82;;;;;;;;;;5044437;28;20230;-60
2021/10/10 05:33:13;;;;;;;16.00;10.52;;;;;;;;;;5038317;28;20274;-58
2021/10/10 05:35:40;;;;;;;17.48;10.70;;;;;;;;;;5045899;28;20196;-55
2021/10/10 05:38:10;;;;;;;17.13;10.57;;;;;;;;;;5052245;28;20267;-56
2021/10/10 05:40:53;;;;;;;14.65;10.95;;;;;;;;;;5047946;28;20226;-56
2021/10/10 05:43:21;;;;;;;19.85;10.60;;;;;;;;;;5052440;28;20203;-50
2021/10/10 05:45:50;;;;;;;13.57;9.45;;;;;;;;;;5051613;28;20211;-58
2021/10/10 05:48:18;;;;;;;18.95;10.85;;;;;;;;;;5051843;28;20372;-53
2021/10/10 05:50:45;;;;;;;14.30;10.75;;;;;;;;;;5052449;28;20382;-62
2021/10/10 05:53:15;;;;;;;17.88;11.95;;;;;;;;;;5051788;28;20183;-58
2021/10/10 05:56:11;;;;;;;14.43;9.55;;;;;;;;;;5052795;28;20203;-57
2021/10/10 05:58:43;;;;;;;16.77;11.80;;;;;;;;;;5050730;28;20253;-57
2021/10/10 06:01:12;;;;;;;15.07;10.50;;;;;;;;;;5052484;28;20196;-61
2021/10/10 06:03:58;;;;;;;18.55;11.15;;;;;;;;;;5051666;28;20213;-48
2021/10/10 06:06:25;;;;;;;16.40;10.50;;;;;;;;;;5041541;28;20203;-55
2021/10/10 06:08:53;;;;;;;17.77;10.98;;;;;;;;;;5052162;28;20217;-58
2021/10/10 06:11:27;;;;;;;18.48;10.50;;;;;;;;;;5054509;28;20229;-59
2021/10/10 06:13:55;;;;;;;17.30;10.98;;;;;;;;;;5055407;28;20203;-61
2021/10/10 06:16:24;;;;;;;18.60;12.30;;;;;;;;;;5048158;28;20255;-54
2021/10/10 06:18:52;;;;;;;17.55;11.93;;;;;;;;;;5055693;28;20191;-58
2021/10/10 06:21:19;;;;;;;20.17;11.43;;;;;;;;;;5055790;28;20207;-57
2021/10/10 06:23:48;;;;;;;20.33;11.45;;;;;;;;;;5055628;28;20274;-52
2021/10/10 06:26:18;;;;;;;15.02;10.40;;;;;;;;;;5055485;28;20204;-60
2021/10/10 06:28:45;;;;;;;16.50;10.85;;;;;;;;;;5055667;28;20217;-61
2021/10/10 06:31:12;;;;;;;18.45;10.98;;;;;;;;;;5055423;28;20211;-54
2021/10/10 06:33:54;;;;;;;15.40;10.68;;;;;;;;;;5038912;28;20180;-54
2021/10/10 06:36:21;;;;;;;16.58;10.93;;;;;;;;;;5037856;28;20204;-60
2021/10/10 06:38:51;;;;;;;15.75;11.40;;;;;;;;;;5038150;28;20204;-61
2021/10/10 06:41:29;;;;;;;16.13;11.00;;;;;;;;;;5035580;28;20208;-59
2021/10/10 06:43:59;;;;;;;18.88;11.35;;;;;;;;;;5047622;28;20225;-59
2021/10/10 06:46:27;;;;;;;16.40;10.82;;;;;;;;;;5045429;28;20228;-59
2021/10/10 06:49:29;;;;;;;20.03;13.00;;;;;;;;;;5045212;28;20192;-63
2021/10/10 06:51:57;;;;;;;16.00;11.30;;;;;;;;;;5040902;28;20546;-63
2021/10/10 06:54:25;;;;;;;20.02;11.77;;;;;;;;;;5045563;28;20439;-62
2021/10/10 06:57:00;;;;;;;18.15;11.40;;;;;;;;;;5036067;28;20238;-57
2021/10/10 06:59:27;;;;;;;16.58;12.02;;;;;;;;;;5050533;28;20388;-54
2021/10/10 07:01:55;;;;;;;17.13;11.65;;;;;;;;;;5055778;28;20204;-62
2021/10/10 07:04:32;;;;;;;20.50;13.27;;;;;;;;;;5055128;28;20207;-59
2021/10/10 07:07:01;;;;;;;15.60;11.83;;;;;;;;;;5055710;28;20464;-59
2021/10/10 07:09:28;;;;;;;22.40;12.30;;;;;;;;;;5055840;28;20498;-61
2021/10/10 07:12:24;;;;;;;;;;;;;;;;;;;;;
2021/10/10 07:14:54;;;;;;;17.10;11.97;;;;;;;;;;5055554;28;20442;-50
2021/10/10 07:17:33;;;;;;;15.20;11.50;;;;;;;;;;5054901;28;20497;-59
2021/10/10 07:20:03;;;;;;;15.57;10.40;;;;;;;;;;5054494;28;20478;-55
2021/10/10 07:22:43;;;;;;;19.27;11.13;;;;;;;;;;5054098;28;20438;-60
2021/10/10 07:25:11;;;;;;;15.53;11.57;;;;;;;;;;5054250;28;20473;-56
2021/10/10 07:27:39;;;;;;;18.07;12.03;;;;;;;;;;5054493;28;20479;-57
2021/10/10 07:30:15;;;;;;;21.20;12.50;;;;;;;;;;5053923;28;20477;-51
2021/10/10 07:32:43;;;;;;;15.70;11.90;;;;;;;;;;5053710;28;20500;-58
2021/10/10 07:35:12;;;;;;;17.87;12.23;;;;;;;;;;5053530;28;20450;-62
2021/10/10 07:37:53;;;;;;;22.83;12.60;;;;;;;;;;5054672;28;20458;-56
2021/10/10 07:40:21;;;;;;;22.83;11.83;;;;;;;;;;5066661;28;20511;-55
2021/10/10 07:42:51;;;;;;;17.90;12.40;;;;;;;;;;5073814;28;20453;-59
2021/10/10 07:45:22;;;;;;;20.93;11.10;;;;;;;;;;5073830;27;20445;-54
2021/10/10 07:47:52;;;;;;;20.23;12.43;;;;;;;;;;5073880;28;20471;-53
2021/10/10 07:50:20;;;;;;;23.50;13.50;;;;;;;;;;5073210;28;20418;-60
2021/10/10 07:53:10;;;;;;;16.43;11.17;;;;;;;;;;5072093;28;20541;-56
2021/10/10 07:55:39;;;;;;;15.17;11.40;;;;;;;;;;5072431;28;20441;-60
2021/10/10 07:58:06;;;;;;;16.33;11.40;;;;;;;;;;5072782;28;20583;-56
2021/10/10 08:00:38;;;;;;;15.17;10.63;;;;;;;;;;5066411;28;20450;-53
2021/10/10 08:03:05;;;;;;;16.73;11.53;;;;;;;;;;5053173;28;20469;-56
2021/10/10 08:05:40;;;;;;;18.70;12.10;;;;;;;;;;5053049;28;20433;-50
2021/10/10 08:08:08;;;;;;;16.97;11.73;;;;;;;;;;5052630;28;20725;-57
2021/10/10 08:10:35;;;;;;;18.43;13.17;;;;;;;;;;5052322;28;20554;-54
2021/10/10 08:13:06;;;;;;;17.53;12.40;;;;;;;;;;5052960;28;20478;-53
2021/10/10 08:15:34;;;;;;;16.97;11.93;;;;;;;;;;5052273;27;20612;-56
2021/10/10 08:18:05;;;;;;;14.40;11.20;;;;;;;;;;5052436;28;20466;-59
2021/10/10 08:20:39;;;;;;;17.37;12.23;;;;;;;;;;5053037;28;20449;-57
2021/10/10 08:23:08;;;;;;;19.77;12.20;;;;;;;;;;5052028;28;20454;-59
2021/10/10 08:25:36;;;;;;;18.60;12.87;;;;;;;;;;5051705;28;20569;-57
2021/10/10 08:28:16;;;;;;;14.50;10.83;;;;;;;;;;5051902;28;20729;-57
2021/10/10 08:30:43;;;;;;;14.77;10.50;;;;;;;;;;5052011;28;20461;-59
2021/10/10 08:33:10;;;;;;;19.33;12.03;;;;;;;;;;5050538;28;20451;-61
2021/10/10 08:35:37;;;;;;;17.07;11.93;;;;;;;;;;5051322;28;20495;-56
2021/10/10 08:38:05;;;;;;;16.07;12.13;;;;;;;;;;5057783;28;20434;-60
2021/10/10 08:40:32;;;;;;;16.10;11.90;;;;;;;;;;5071283;28;20485;-57
2021/10/10 08:43:18;;;;;;;17.93;12.40;;;;;;;;;;5071220;28;20449;-57
2021/10/10 08:45:47;;;;;;;15.60;12.07;;;;;;;;;;5071805;28;20467;-62
2021/10/10 08:48:14;;;;;;;15.23;11.80;;;;;;;;;;5070339;28;20452;-61
2021/10/10 08:50:43;;;;;;;15.30;10.90;;;;;;;;;;5071277;28;20525;-56
2021/10/10 08:53:10;;;;;;;17.10;11.93;;;;;;;;;;5071557;28;20473;-50
2021/10/10 08:55:37;;;;;;;13.83;10.07;;;;;;;;;;5071382;28;20481;-60
2021/10/10 08:58:43;;;;;;;25.53;11.27;;;;;;;;;;5072045;28;20449;-60
2021/10/10 09:01:26;;;;;;;16.30;12.73;;;;;;;;;;5071686;28;20468;-61
2021/10/10 09:04:04;;;;;;;20.03;13.13;;;;;;;;;;5071421;28;20484;-57
2021/10/10 09:06:33;;;;;;;24.50;12.10;;;;;;;;;;5071116;28;20465;-56
2021/10/10 09:09:15;;;;;;;18.40;12.10;;;;;;;;;;5070806;28;20454;-57
2021/10/10 09:11:44;;;;;;;22.40;11.60;;;;;;;;;;5070255;28;20476;-60
2021/10/10 09:14:11;;;;;;;20.70;11.30;;;;;;;;;;5070773;28;20441;-57
2021/10/10 09:16:40;;;;;;;18.33;10.80;;;;;;;;;;5070606;28;20447;-58
2021/10/10 09:22:11;;;;;;;16.27;10.70;;;;;;;;;;5070626;28;20423;-58
2021/10/10 09:24:39;;;;;;;14.83;10.30;;;;;;;;;;5069682;28;20457;-59
2021/10/10 09:27:12;;;;;;;14.90;9.97;;;;;;;;;;5070411;28;20469;-53
2021/10/10 09:29:40;;;;;;;21.50;11.10;;;;;;;;;;5070833;28;20457;-60
2021/10/10 09:32:11;;;;;;;14.93;9.70;;;;;;;;;;5070201;28;20485;-58
2021/10/10 09:34:45;;;;;;;16.13;10.90;;;;;;;;;;5070672;28;20488;-58
2021/10/10 09:37:19;;;;;;;17.27;12.87;;;;;;;;;;5069656;28;20506;-57
2021/10/10 09:39:53;;;;;;;15.30;10.50;;;;;;;;;;5070166;28;20477;-60
2021/10/10 09:42:33;;;;;;;16.57;12.13;;;;;;;;;;5069694;28;20472;-61
2021/10/10 09:45:16;;;;;;;17.87;10.77;;;;;;;;;;5071098;28;20465;-60
2021/10/10 09:47:52;;;;;;;18.30;11.20;;;;;;;;;;5070129;28;20446;-61
2021/10/10 09:50:20;;;;;;;14.17;10.17;;;;;;;;;;5071144;28;20464;-60
2021/10/10 09:53:35;;;;;;;15.70;11.20;;;;;;;;;;5071888;28;20481;-57
2021/10/10 09:58:52;;;;;;;19.60;10.53;;;;;;;;;;5065988;28;20440;-64
2021/10/10 10:01:23;;;;;;;18.70;11.90;;;;;;;;;;5075746;27;20670;-56
2021/10/10 10:04:03;;;;;;;21.83;12.77;;;;;;;;;;5069994;28;20844;-62
2021/10/10 10:06:43;;;;;;;15.20;9.83;;;;;;;;;;5079397;28;20460;-56
2021/10/10 10:09:15;;;;;;;16.03;10.13;;;;;;;;;;5074570;27;20500;-59
2021/10/10 10:12:01;;;;;;;13.43;10.23;;;;;;;;;;5073488;27;20493;-60
2021/10/10 10:14:38;;;;;;;15.60;10.53;;;;;;;;;;5050059;28;20482;-60
2021/10/10 10:17:07;;;;;;;13.60;10.20;;;;;;;;;;5069868;28;20483;-58
2021/10/10 10:19:41;;;;;;;14.77;9.67;;;;;;;;;;5064038;28;20466;-55
2021/10/10 10:22:12;;;;;;;12.33;8.93;;;;;;;;;;5049924;28;20462;-56
2021/10/10 10:24:42;;;;;;;13.97;9.33;;;;;;;;;;5069866;28;20489;-57
2021/10/10 10:27:10;;;;;;;14.10;10.50;;;;;;;;;;5069140;28;20476;-54
2021/10/10 10:29:48;;;;;;;15.87;11.13;;;;;;;;;;5071037;28;20452;-55
2021/10/10 10:32:18;;;;;;;15.57;11.77;;;;;;;;;;5067940;28;20512;-59
2021/10/10 10:35:18;;;;;;;18.30;10.90;;;;;;;;;;5069452;28;20481;-51
2021/10/10 10:37:59;;;;;;;16.97;10.33;;;;;;;;;;5050632;28;20458;-52
2021/10/10 10:40:43;;;;;;;12.87;9.77;;;;;;;;;;5051068;28;20426;-58
2021/10/10 10:43:38;;;;;;;15.60;8.90;;;;;;;;;;5050829;28;20552;-57
2021/10/10 10:46:27;;;;;;;17.97;10.40;;;;;;;;;;5051128;28;20458;-64
2021/10/10 10:48:59;;;;;;;19.17;9.57;;;;;;;;;;5050347;28;20454;-60
2021/10/10 10:51:52;;;;;;;14.07;9.87;;;;;;;;;;5061911;28;20488;-57
2021/10/10 11:03:34;;;;;;;12.13;9.30;;;;;;;;;;5071626;27;20488;-51
2021/10/10 11:12:30;;;;;;;13.67;9.87;;;;;;;;;;5059963;28;20437;-52
2021/10/10 11:15:13;;;;;;;11.03;8.17;;;;;;;;;;5077714;28;20475;-55
2021/10/10 11:18:02;;;;;;;14.80;10.80;;;;;;;;;;5072746;28;20408;-59
2021/10/10 11:21:01;;;;;;;12.80;9.43;;;;;;;;;;5072866;28;20453;-58
2021/10/10 11:23:45;;;;;;;14.23;9.50;;;;;;;;;;5073085;28;20457;-53
2021/10/10 11:26:13;;;;;;;11.80;8.33;;;;;;;;;;5070818;28;20756;-53
2021/10/10 11:28:44;;;;;;;13.97;8.77;;;;;;;;;;5072345;28;20441;-55
2021/10/10 11:31:13;;;;;;;12.17;10.27;;;;;;;;;;5066342;28;20453;-60
2021/10/10 11:33:45;;;;;;;13.40;9.80;;;;;;;;;;5075648;28;20493;-55
2021/10/10 11:36:16;;;;;;;16.30;9.70;;;;;;;;;;5071884;28;20518;-58
2021/10/10 11:38:49;;;;;;;17.17;10.10;;;;;;;;;;5067618;27;20476;-60
2021/10/10 11:41:23;;;;;;;15.83;9.80;;;;;;;;;;5072191;27;20475;-54
2021/10/10 11:44:00;;;;;;;13.67;8.73;;;;;;;;;;5063651;28;20453;-55
2021/10/10 11:46:42;;;;;;;18.70;11.40;;;;;;;;;;5055477;28;20453;-58
2021/10/10 11:49:34;;;;;;;14.23;10.60;;;;;;;;;;5073499;28;20460;-57
2021/10/10 11:52:17;;;;;;;12.50;10.00;;;;;;;;;;5071932;27;20452;-56
2021/10/10 11:54:48;;;;;;;18.93;13.10;;;;;;;;;;5076734;27;20508;-59
2021/10/10 11:57:16;;;;;;;22.00;15.63;;;;;;;;;;5083077;27;20493;-62
2021/10/10 12:00:18;;;;;;;19.60;13.67;;;;;;;;;;5080739;28;20477;-61
2021/10/10 12:02:53;;;;;;;16.63;10.57;;;;;;;;;;5070296;27;20476;-57
2021/10/10 12:05:23;;;;;;;13.13;10.23;;;;;;;;;;5078819;27;20463;-62
2021/10/10 12:07:53;;;;;;;20.23;13.43;;;;;;;;;;5063122;28;20494;-62
